sensor_id;sensor_type;location;lat;lon;timestamp;pressure;altitude;pressure_sealevel;temperature;humidity
37064;BME280;23211;53.912;9.138;2022-10-16T00:02:37;100810.25;;;19.02;57.94
37064;BME280;23211;53.912;9.138;2022-10-16T00:05:23;100821.09;;;19.02;57.90
37064;BME280;23211;53.912;9.138;2022-10-16T00:08:11;100829.56;;;19.00;58.02
37064;BME280;23211;53.912;9.138;2022-10-16T00:11:12;100829.06;;;18.98;57.87
37064;BME280;23211;53.912;9.138;2022-10-16T00:13:59;100826.66;;;18.97;57.88
37064;BME280;23211;53.912;9.138;2022-10-16T00:16:45;100827.75;;;18.96;58.07
37064;BME280;23211;53.912;9.138;2022-10-16T00:19:31;100828.06;;;18.94;57.92
37064;BME280;23211;53.912;9.138;2022-10-16T00:22:17;100822.94;;;18.93;58.02
37064;BME280;23211;53.912;9.138;2022-10-16T00:25:03;100828.69;;;18.91;58.10
37064;BME280;23211;53.912;9.138;2022-10-16T00:27:48;100822.75;;;18.89;58.26
37064;BME280;23211;53.912;9.138;2022-10-16T00:30:37;100821.47;;;18.87;58.18
37064;BME280;23211;53.912;9.138;2022-10-16T00:33:23;100825.78;;;18.88;57.98
37064;BME280;23211;53.912;9.138;2022-10-16T00:36:11;100829.59;;;18.87;58.21
37064;BME280;23211;53.912;9.138;2022-10-16T00:38:58;100835.84;;;18.87;58.16
37064;BME280;23211;53.912;9.138;2022-10-16T00:41:46;100828.00;;;18.86;58.02
37064;BME280;23211;53.912;9.138;2022-10-16T00:44:52;100840.09;;;18.80;58.30
37064;BME280;23211;53.912;9.138;2022-10-16T00:47:41;100834.03;;;18.83;57.96
37064;BME280;23211;53.912;9.138;2022-10-16T00:50:30;100837.56;;;18.83;58.12
37064;BME280;23211;53.912;9.138;2022-10-16T00:53:17;100836.16;;;18.86;58.06
37064;BME280;23211;53.912;9.138;2022-10-16T00:56:03;100838.88;;;18.86;57.95
37064;BME280;23211;53.912;9.138;2022-10-16T00:58:49;100835.34;;;18.85;57.94
37064;BME280;23211;53.912;9.138;2022-10-16T01:01:35;100829.41;;;18.83;58.00
37064;BME280;23211;53.912;9.138;2022-10-16T01:04:21;100832.94;;;18.84;57.89
37064;BME280;23211;53.912;9.138;2022-10-16T01:07:39;100849.34;;;18.79;58.13
37064;BME280;23211;53.912;9.138;2022-10-16T01:10:49;100848.22;;;18.80;58.20
37064;BME280;23211;53.912;9.138;2022-10-16T01:13:42;100850.44;;;18.78;58.05
37064;BME280;23211;53.912;9.138;2022-10-16T01:16:37;100840.88;;;18.80;58.10
37064;BME280;23211;53.912;9.138;2022-10-16T01:19:41;100846.00;;;18.82;58.15
37064;BME280;23211;53.912;9.138;2022-10-16T01:22:50;100847.13;;;18.81;57.97
37064;BME280;23211;53.912;9.138;2022-10-16T01:29:01;100847.72;;;18.78;58.07
37064;BME280;23211;53.912;9.138;2022-10-16T01:31:54;100850.13;;;18.79;58.02
37064;BME280;23211;53.912;9.138;2022-10-16T01:37:36;100851.75;;;18.80;58.26
37064;BME280;23211;53.912;9.138;2022-10-16T01:40:25;100837.38;;;18.80;57.84
37064;BME280;23211;53.912;9.138;2022-10-16T01:43:22;100846.94;;;18.77;57.84
37064;BME280;23211;53.912;9.138;2022-10-16T01:46:10;100842.00;;;18.79;57.93
37064;BME280;23211;53.912;9.138;2022-10-16T01:48:56;100843.59;;;18.80;57.80
37064;BME280;23211;53.912;9.138;2022-10-16T01:51:45;100835.78;;;18.79;57.67
37064;BME280;23211;53.912;9.138;2022-10-16T01:54:35;100841.69;;;18.81;57.74
37064;BME280;23211;53.912;9.138;2022-10-16T01:57:23;100837.06;;;18.81;57.70
37064;BME280;23211;53.912;9.138;2022-10-16T02:00:12;100841.69;;;18.81;57.58
37064;BME280;23211;53.912;9.138;2022-10-16T02:03:01;100835.97;;;18.82;57.63
37064;BME280;23211;53.912;9.138;2022-10-16T02:05:56;100840.88;;;18.80;57.58
37064;BME280;23211;53.912;9.138;2022-10-16T02:08:43;100846.00;;;18.82;57.59
37064;BME280;23211;53.912;9.138;2022-10-16T02:11:29;100837.06;;;18.81;57.45
37064;BME280;23211;53.912;9.138;2022-10-16T02:14:15;100837.06;;;18.81;57.55
37064;BME280;23211;53.912;9.138;2022-10-16T02:17:01;100837.88;;;18.82;57.65
37064;BME280;23211;53.912;9.138;2022-10-16T02:19:49;100837.06;;;18.81;57.31
37064;BME280;23211;53.912;9.138;2022-10-16T02:22:45;100841.50;;;18.77;57.08
37064;BME280;23211;53.912;9.138;2022-10-16T02:25:38;100840.69;;;18.77;57.38
37064;BME280;23211;53.912;9.138;2022-10-16T02:28:38;100838.91;;;18.72;57.25
37064;BME280;23211;53.912;9.138;2022-10-16T02:31:28;100845.94;;;18.73;57.12
37064;BME280;23211;53.912;9.138;2022-10-16T02:34:18;100845.25;;;18.67;57.14
37064;BME280;23211;53.912;9.138;2022-10-16T02:37:06;100841.72;;;18.67;56.75
37064;BME280;23211;53.912;9.138;2022-10-16T02:39:54;100854.81;;;18.65;56.78
37064;BME280;23211;53.912;9.138;2022-10-16T02:42:40;100841.84;;;18.62;56.88
37064;BME280;23211;53.912;9.138;2022-10-16T02:45:35;100840.50;;;18.59;56.94
37064;BME280;23211;53.912;9.138;2022-10-16T02:48:21;100848.94;;;18.58;56.79
37064;BME280;23211;53.912;9.138;2022-10-16T02:51:21;100851.47;;;18.54;56.68
37064;BME280;23211;53.912;9.138;2022-10-16T02:54:07;100846.66;;;18.51;56.70
37064;BME280;23211;53.912;9.138;2022-10-16T02:56:53;100835.31;;;18.49;56.72
37064;BME280;23211;53.912;9.138;2022-10-16T02:59:39;100845.97;;;18.46;56.96
37064;BME280;23211;53.912;9.138;2022-10-16T03:02:24;100850.09;;;18.43;56.79
37064;BME280;23211;53.912;9.138;2022-10-16T03:05:10;100838.72;;;18.41;56.87
37064;BME280;23211;53.912;9.138;2022-10-16T03:07:56;100836.94;;;18.36;56.77
37064;BME280;23211;53.912;9.138;2022-10-16T03:10:43;100841.06;;;18.34;56.93
37064;BME280;23211;53.912;9.138;2022-10-16T03:13:29;100836.72;;;18.33;57.01
37064;BME280;23211;53.912;9.138;2022-10-16T03:16:15;100845.16;;;18.31;56.94
37064;BME280;23211;53.912;9.138;2022-10-16T03:19:02;100848.19;;;18.30;56.92
37064;BME280;23211;53.912;9.138;2022-10-16T03:21:48;100845.47;;;18.30;56.92
37064;BME280;23211;53.912;9.138;2022-10-16T03:24:34;100854.72;;;18.29;56.95
37064;BME280;23211;53.912;9.138;2022-10-16T03:27:19;100853.91;;;18.28;56.95
37064;BME280;23211;53.912;9.138;2022-10-16T03:30:05;100857.72;;;18.27;57.05
37064;BME280;23211;53.912;9.138;2022-10-16T03:32:51;100867.47;;;18.28;57.23
37064;BME280;23211;53.912;9.138;2022-10-16T03:35:39;100869.38;;;18.28;57.19
37064;BME280;23211;53.912;9.138;2022-10-16T03:38:25;100863.66;;;18.29;57.27
37064;BME280;23211;53.912;9.138;2022-10-16T03:41:11;100866.06;;;18.31;57.25
37064;BME280;23211;53.912;9.138;2022-10-16T03:43:56;100869.28;;;18.33;57.25
37064;BME280;23211;53.912;9.138;2022-10-16T03:46:42;100869.78;;;18.35;57.25
37064;BME280;23211;53.912;9.138;2022-10-16T03:49:28;100865.97;;;18.36;57.36
37064;BME280;23211;53.912;9.138;2022-10-16T03:52:14;100871.59;;;18.40;57.37
37064;BME280;23211;53.912;9.138;2022-10-16T03:54:59;100874.00;;;18.41;57.45
37064;BME280;23211;53.912;9.138;2022-10-16T03:57:45;100880.72;;;18.44;57.45
37064;BME280;23211;53.912;9.138;2022-10-16T04:00:31;100874.19;;;18.45;57.58
37064;BME280;23211;53.912;9.138;2022-10-16T04:03:17;100874.69;;;18.47;57.43
37064;BME280;23211;53.912;9.138;2022-10-16T04:06:04;100876.31;;;18.48;57.59
37064;BME280;23211;53.912;9.138;2022-10-16T04:08:50;100872.47;;;18.49;57.53
37064;BME280;23211;53.912;9.138;2022-10-16T04:11:36;100882.22;;;18.50;57.50
37064;BME280;23211;53.912;9.138;2022-10-16T04:14:22;100892.78;;;18.51;57.68
37064;BME280;23211;53.912;9.138;2022-10-16T04:17:07;100889.75;;;18.53;57.46
37064;BME280;23211;53.912;9.138;2022-10-16T04:19:53;100902.22;;;18.54;57.63
37064;BME280;23211;53.912;9.138;2022-10-16T04:22:39;100894.88;;;18.54;57.32
37064;BME280;23211;53.912;9.138;2022-10-16T04:25:25;100899.22;;;18.55;57.75
37064;BME280;23211;53.912;9.138;2022-10-16T04:28:11;100886.13;;;18.57;57.38
37064;BME280;23211;53.912;9.138;2022-10-16T04:30:56;100909.16;;;18.60;57.19
37064;BME280;23211;53.912;9.138;2022-10-16T04:33:43;100912.66;;;18.60;57.27
37064;BME280;23211;53.912;9.138;2022-10-16T04:36:29;100909.97;;;18.60;57.34
37064;BME280;23211;53.912;9.138;2022-10-16T04:39:15;100913.50;;;18.61;57.26
37064;BME280;23211;53.912;9.138;2022-10-16T04:42:02;100915.38;;;18.60;57.38
37064;BME280;23211;53.912;9.138;2022-10-16T04:44:48;100925.44;;;18.60;57.38
37064;BME280;23211;53.912;9.138;2022-10-16T04:47:33;100925.16;;;18.61;57.11
37064;BME280;23211;53.912;9.138;2022-10-16T04:50:19;100927.56;;;18.63;57.21
37064;BME280;23211;53.912;9.138;2022-10-16T04:53:20;100928.38;;;18.63;57.27
37064;BME280;23211;53.912;9.138;2022-10-16T04:56:06;100920.75;;;18.65;57.18
37064;BME280;23211;53.912;9.138;2022-10-16T04:58:52;100930.19;;;18.68;56.96
37064;BME280;23211;53.912;9.138;2022-10-16T05:01:38;100931.78;;;18.69;56.82
37064;BME280;23211;53.912;9.138;2022-10-16T05:04:23;100924.75;;;18.68;56.74
37064;BME280;23211;53.912;9.138;2022-10-16T05:07:09;100925.38;;;18.65;56.74
37064;BME280;23211;53.912;9.138;2022-10-16T05:09:55;100927.56;;;18.63;56.63
37064;BME280;23211;53.912;9.138;2022-10-16T05:12:41;100934.09;;;18.62;56.65
37064;BME280;23211;53.912;9.138;2022-10-16T05:15:27;100925.75;;;18.58;56.61
37064;BME280;23211;53.912;9.138;2022-10-16T05:18:12;100925.25;;;18.56;56.67
37064;BME280;23211;53.912;9.138;2022-10-16T05:20:58;100922.53;;;18.56;56.58
37064;BME280;23211;53.912;9.138;2022-10-16T05:23:44;100927.94;;;18.56;56.62
37064;BME280;23211;53.912;9.138;2022-10-16T05:26:30;100936.09;;;18.56;56.58
37064;BME280;23211;53.912;9.138;2022-10-16T05:29:16;100949.66;;;18.56;56.56
37064;BME280;23211;53.912;9.138;2022-10-16T05:32:02;100941.00;;;18.54;56.71
37064;BME280;23211;53.912;9.138;2022-10-16T05:34:47;100932.06;;;18.54;56.59
37064;BME280;23211;53.912;9.138;2022-10-16T05:37:33;100941.81;;;18.55;56.97
37064;BME280;23211;53.912;9.138;2022-10-16T05:40:19;100937.19;;;18.55;56.71
37064;BME280;23211;53.912;9.138;2022-10-16T05:43:05;100935.28;;;18.56;56.73
37064;BME280;23211;53.912;9.138;2022-10-16T05:45:58;100935.59;;;18.54;56.58
37064;BME280;23211;53.912;9.138;2022-10-16T05:48:44;100938.50;;;18.58;56.61
37064;BME280;23211;53.912;9.138;2022-10-16T05:51:30;100931.97;;;18.59;56.62
37064;BME280;23211;53.912;9.138;2022-10-16T05:54:15;100937.09;;;18.60;56.64
37064;BME280;23211;53.912;9.138;2022-10-16T05:57:01;100945.22;;;18.60;56.60
37064;BME280;23211;53.912;9.138;2022-10-16T05:59:47;100949.59;;;18.61;56.54
37064;BME280;23211;53.912;9.138;2022-10-16T06:02:33;100948.78;;;18.61;56.50
37064;BME280;23211;53.912;9.138;2022-10-16T06:05:19;100953.38;;;18.60;56.41
37064;BME280;23211;53.912;9.138;2022-10-16T06:08:04;100964.75;;;18.62;56.51
37064;BME280;23211;53.912;9.138;2022-10-16T06:11:10;100971.56;;;18.60;56.28
37064;BME280;23211;53.912;9.138;2022-10-16T06:13:58;100975.63;;;18.62;56.57
37064;BME280;23211;53.912;9.138;2022-10-16T06:16:44;100981.03;;;18.62;56.76
37064;BME280;23211;53.912;9.138;2022-10-16T06:19:29;100977.22;;;18.63;56.61
37064;BME280;23211;53.912;9.138;2022-10-16T06:22:16;100978.03;;;18.64;56.83
37064;BME280;23211;53.912;9.138;2022-10-16T06:25:03;100983.97;;;18.66;56.75
37064;BME280;23211;53.912;9.138;2022-10-16T06:27:48;100978.22;;;18.67;56.99
37064;BME280;23211;53.912;9.138;2022-10-16T06:30:34;100983.66;;;18.67;56.83
37064;BME280;23211;53.912;9.138;2022-10-16T06:33:20;100987.69;;;18.70;56.83
37064;BME280;23211;53.912;9.138;2022-10-16T06:36:16;100988.28;;;18.67;56.87
37064;BME280;23211;53.912;9.138;2022-10-16T06:39:02;100995.53;;;18.72;56.88
37064;BME280;23211;53.912;9.138;2022-10-16T06:41:48;100997.13;;;18.73;56.83
37064;BME280;23211;53.912;9.138;2022-10-16T06:44:34;101005.78;;;18.75;57.07
37064;BME280;23211;53.912;9.138;2022-10-16T06:47:20;101004.66;;;18.76;57.00
37064;BME280;23211;53.912;9.138;2022-10-16T06:50:06;101007.38;;;18.76;56.99
37064;BME280;23211;53.912;9.138;2022-10-16T06:52:53;101026.38;;;18.76;56.90
37064;BME280;23211;53.912;9.138;2022-10-16T06:55:38;101025.59;;;18.75;56.73
37064;BME280;23211;53.912;9.138;2022-10-16T06:58:24;101031.81;;;18.76;56.83
37064;BME280;23211;53.912;9.138;2022-10-16T07:01:10;101033.72;;;18.75;56.85
37064;BME280;23211;53.912;9.138;2022-10-16T07:03:56;101041.56;;;18.77;56.88
37064;BME280;23211;53.912;9.138;2022-10-16T07:06:42;101039.66;;;18.77;57.26
37064;BME280;23211;53.912;9.138;2022-10-16T07:09:28;101043.38;;;18.81;57.47
37064;BME280;23211;53.912;9.138;2022-10-16T07:12:14;101041.06;;;18.88;57.66
37064;BME280;23211;53.912;9.138;2022-10-16T07:14:59;101046.09;;;18.95;57.71
37064;BME280;23211;53.912;9.138;2022-10-16T07:17:45;101051.63;;;19.04;57.81
37064;BME280;23211;53.912;9.138;2022-10-16T07:20:31;101044.19;;;19.09;57.58
37064;BME280;23211;53.912;9.138;2022-10-16T07:23:17;101045.69;;;19.15;57.79
37064;BME280;23211;53.912;9.138;2022-10-16T07:26:03;101033.59;;;19.21;57.72
37064;BME280;23211;53.912;9.138;2022-10-16T07:28:49;101047.88;;;19.27;57.49
37064;BME280;23211;53.912;9.138;2022-10-16T07:31:35;101038.81;;;19.31;57.21
37064;BME280;23211;53.912;9.138;2022-10-16T07:34:21;101029.25;;;19.34;57.05
37064;BME280;23211;53.912;9.138;2022-10-16T07:37:07;101034.38;;;19.36;56.98
37064;BME280;23211;53.912;9.138;2022-10-16T07:39:53;101047.66;;;19.37;57.07
37064;BME280;23211;53.912;9.138;2022-10-16T07:42:39;101045.75;;;19.38;56.82
37064;BME280;23211;53.912;9.138;2022-10-16T07:45:25;101032.66;;;19.40;56.75
37064;BME280;23211;53.912;9.138;2022-10-16T07:48:11;101045.13;;;19.41;56.77
37064;BME280;23211;53.912;9.138;2022-10-16T07:51:01;101058.72;;;19.41;56.63
37064;BME280;23211;53.912;9.138;2022-10-16T07:53:48;101061.13;;;19.42;56.95
37064;BME280;23211;53.912;9.138;2022-10-16T07:56:34;101070.09;;;19.43;57.03
37064;BME280;23211;53.912;9.138;2022-10-16T07:59:19;101077.13;;;19.44;56.98
37064;BME280;23211;53.912;9.138;2022-10-16T08:02:06;101081.47;;;19.45;56.80
37064;BME280;23211;53.912;9.138;2022-10-16T08:04:52;101076.03;;;19.45;56.90
37064;BME280;23211;53.912;9.138;2022-10-16T08:07:38;101081.97;;;19.47;56.96
37064;BME280;23211;53.912;9.138;2022-10-16T08:10:25;101074.31;;;19.49;56.93
37064;BME280;23211;53.912;9.138;2022-10-16T08:13:11;101081.34;;;19.50;57.17
37064;BME280;23211;53.912;9.138;2022-10-16T08:16:00;101083.50;;;19.53;57.09
37064;BME280;23211;53.912;9.138;2022-10-16T08:18:46;101091.03;;;19.56;57.27
37064;BME280;23211;53.912;9.138;2022-10-16T08:21:32;101087.41;;;19.60;57.11
37064;BME280;23211;53.912;9.138;2022-10-16T08:24:18;101093.03;;;19.64;57.17
37064;BME280;23211;53.912;9.138;2022-10-16T08:27:04;101095.94;;;19.68;57.37
37064;BME280;23211;53.912;9.138;2022-10-16T08:29:49;101107.31;;;19.70;57.24
37064;BME280;23211;53.912;9.138;2022-10-16T08:32:35;101107.50;;;19.73;57.16
37064;BME280;23211;53.912;9.138;2022-10-16T08:35:21;101111.84;;;19.74;57.30
37064;BME280;23211;53.912;9.138;2022-10-16T08:38:07;101112.03;;;19.78;57.50
37064;BME280;23211;53.912;9.138;2022-10-16T08:49:56;101138.69;;;19.89;57.42
37064;BME280;23211;53.912;9.138;2022-10-16T08:52:44;101139.69;;;19.93;57.56
37064;BME280;23211;53.912;9.138;2022-10-16T08:55:52;101136.53;;;20.00;57.55
37064;BME280;23211;53.912;9.138;2022-10-16T08:58:36;101151.94;;;20.05;57.33
37064;BME280;23211;53.912;9.138;2022-10-16T09:01:23;101151.50;;;20.11;57.34
37064;BME280;23211;53.912;9.138;2022-10-16T09:10:17;101150.03;;;20.27;57.31
37064;BME280;23211;53.912;9.138;2022-10-16T09:16:17;101169.38;;;20.40;57.37
37064;BME280;23211;53.912;9.138;2022-10-16T09:19:13;101170.34;;;20.44;57.26
37064;BME280;23211;53.912;9.138;2022-10-16T09:22:11;101178.09;;;20.50;57.24
37064;BME280;23211;53.912;9.138;2022-10-16T09:25:11;101183.72;;;20.54;57.01
37064;BME280;23211;53.912;9.138;2022-10-16T09:27:58;101192.25;;;20.61;57.21
37064;BME280;23211;53.912;9.138;2022-10-16T09:30:44;101191.81;;;20.68;57.04
37064;BME280;23211;53.912;9.138;2022-10-16T09:33:36;101188.97;;;20.73;56.94
37064;BME280;23211;53.912;9.138;2022-10-16T09:36:25;101202.69;;;20.81;56.89
37064;BME280;23211;53.912;9.138;2022-10-16T09:39:12;101194.06;;;20.88;56.81
37064;BME280;23211;53.912;9.138;2022-10-16T09:41:58;101195.03;;;20.92;56.49
37064;BME280;23211;53.912;9.138;2022-10-16T09:44:50;101193.63;;;20.95;56.10
37064;BME280;23211;53.912;9.138;2022-10-16T09:47:39;101193.00;;;20.98;55.98
37064;BME280;23211;53.912;9.138;2022-10-16T09:50:28;101204.06;;;21.01;55.83
37064;BME280;23211;53.912;9.138;2022-10-16T09:53:15;101197.50;;;21.02;55.60
37064;BME280;23211;53.912;9.138;2022-10-16T09:56:03;101190.13;;;21.03;55.65
37064;BME280;23211;53.912;9.138;2022-10-16T09:58:56;101194.47;;;21.04;55.61
37064;BME280;23211;53.912;9.138;2022-10-16T10:04:47;101207.16;;;21.08;55.54
37064;BME280;23211;53.912;9.138;2022-10-16T10:07:38;101206.22;;;21.13;55.62
37064;BME280;23211;53.912;9.138;2022-10-16T10:10:30;101201.25;;;21.15;55.05
37064;BME280;23211;53.912;9.138;2022-10-16T10:13:19;101227.88;;;21.18;54.94
37064;BME280;23211;53.912;9.138;2022-10-16T10:16:05;101231.09;;;21.20;54.99
37064;BME280;23211;53.912;9.138;2022-10-16T10:18:58;101230.78;;;21.21;54.95
37064;BME280;23211;53.912;9.138;2022-10-16T10:21:44;101238.53;;;21.28;54.94
37064;BME280;23211;53.912;9.138;2022-10-16T10:24:30;101243.84;;;21.33;54.97
37064;BME280;23211;53.912;9.138;2022-10-16T10:27:18;101242.91;;;21.38;54.88
37064;BME280;23211;53.912;9.138;2022-10-16T10:42:27;101253.63;;;21.74;54.71
37064;BME280;23211;53.912;9.138;2022-10-16T10:45:28;101256.88;;;21.84;54.52
37064;BME280;23211;53.912;9.138;2022-10-16T10:51:12;101277.47;;;21.99;53.71
37064;BME280;23211;53.912;9.138;2022-10-16T10:54:14;101262.22;;;21.98;53.29
37064;BME280;23211;53.912;9.138;2022-10-16T11:06:18;101298.16;;;22.00;52.56
37064;BME280;23211;53.912;9.138;2022-10-16T11:09:14;101300.09;;;22.00;52.65
37064;BME280;23211;53.912;9.138;2022-10-16T11:12:17;101301.03;;;21.95;52.37
37064;BME280;23211;53.912;9.138;2022-10-16T11:15:14;101316.44;;;21.91;52.14
37064;BME280;23211;53.912;9.138;2022-10-16T11:21:19;101317.25;;;21.92;52.16
37064;BME280;23211;53.912;9.138;2022-10-16T11:24:16;101321.09;;;21.91;52.21
37064;BME280;23211;53.912;9.138;2022-10-16T11:27:08;101316.44;;;21.91;51.88
37064;BME280;23211;53.912;9.138;2022-10-16T11:30:02;101335.38;;;21.87;51.79
37064;BME280;23211;53.912;9.138;2022-10-16T11:35:55;101333.44;;;21.88;52.15
37064;BME280;23211;53.912;9.138;2022-10-16T11:42:21;101344.34;;;21.88;52.19
37064;BME280;23211;53.912;9.138;2022-10-16T11:48:41;101345.00;;;21.94;52.24
37064;BME280;23211;53.912;9.138;2022-10-16T11:51:38;101354.97;;;21.98;52.64
37064;BME280;23211;53.912;9.138;2022-10-16T11:57:33;101364.22;;;22.11;52.24
37064;BME280;23211;53.912;9.138;2022-10-16T12:00:47;101371.28;;;22.12;52.53
37064;BME280;23211;53.912;9.138;2022-10-16T12:03:43;101364.41;;;22.23;52.41
37064;BME280;23211;53.912;9.138;2022-10-16T12:06:33;101375.34;;;22.32;52.17
37064;BME280;23211;53.912;9.138;2022-10-16T12:09:31;101373.59;;;22.36;51.76
37064;BME280;23211;53.912;9.138;2022-10-16T12:15:26;101388.22;;;22.40;50.94
37064;BME280;23211;53.912;9.138;2022-10-16T12:18:23;101388.06;;;22.36;50.79
37064;BME280;23211;53.912;9.138;2022-10-16T12:21:11;101388.84;;;22.37;50.49
37064;BME280;23211;53.912;9.138;2022-10-16T12:24:02;101400.09;;;22.35;50.50
37064;BME280;23211;53.912;9.138;2022-10-16T12:26:51;101406.66;;;22.34;50.43
37064;BME280;23211;53.912;9.138;2022-10-16T12:29:39;101403.78;;;22.31;50.20
37064;BME280;23211;53.912;9.138;2022-10-16T12:32:32;101403.28;;;22.29;50.25
37064;BME280;23211;53.912;9.138;2022-10-16T12:35:22;101411.16;;;22.30;50.37
37064;BME280;23211;53.912;9.138;2022-10-16T12:38:17;101410.03;;;22.31;50.33
37064;BME280;23211;53.912;9.138;2022-10-16T12:41:06;101414.53;;;22.36;50.43
37064;BME280;23211;53.912;9.138;2022-10-16T12:43:58;101415.22;;;22.41;50.30
37064;BME280;23211;53.912;9.138;2022-10-16T12:46:46;101423.88;;;22.43;49.88
37064;BME280;23211;53.912;9.138;2022-10-16T12:49:37;101437.22;;;22.45;50.03
37064;BME280;23211;53.912;9.138;2022-10-16T12:55:21;101430.97;;;22.44;49.81
37064;BME280;23211;53.912;9.138;2022-10-16T13:01:44;101433.81;;;22.31;49.59
37064;BME280;23211;53.912;9.138;2022-10-16T13:08:11;101423.50;;;22.28;49.16
37064;BME280;23211;53.912;9.138;2022-10-16T13:26:35;101473.94;;;22.30;49.28
37064;BME280;23211;53.912;9.138;2022-10-16T13:29:22;101477.66;;;22.34;49.31
37064;BME280;23211;53.912;9.138;2022-10-16T13:32:10;101479.75;;;22.37;49.11
37064;BME280;23211;53.912;9.138;2022-10-16T13:35:00;101492.47;;;22.42;48.99
37064;BME280;23211;53.912;9.138;2022-10-16T13:37:46;101498.09;;;22.45;48.77
37064;BME280;23211;53.912;9.138;2022-10-16T13:40:32;101492.00;;;22.48;48.76
37064;BME280;23211;53.912;9.138;2022-10-16T13:43:24;101502.31;;;22.51;48.56
37064;BME280;23211;53.912;9.138;2022-10-16T13:46:20;101516.75;;;22.52;48.41
37064;BME280;23211;53.912;9.138;2022-10-16T13:49:16;101518.69;;;22.51;48.52
37064;BME280;23211;53.912;9.138;2022-10-16T13:52:02;101515.34;;;22.55;48.16
37064;BME280;23211;53.912;9.138;2022-10-16T13:54:48;101525.44;;;22.54;47.92
37064;BME280;23211;53.912;9.138;2022-10-16T13:57:34;101524.66;;;22.54;48.31
37064;BME280;23211;53.912;9.138;2022-10-16T14:00:25;101527.38;;;22.54;48.41
37064;BME280;23211;53.912;9.138;2022-10-16T14:03:16;101531.09;;;22.58;48.44
37064;BME280;23211;53.912;9.138;2022-10-16T14:06:03;101535.91;;;22.61;48.68
37064;BME280;23211;53.912;9.138;2022-10-16T14:09:18;101547.78;;;22.56;48.79
37064;BME280;23211;53.912;9.138;2022-10-16T14:12:11;101540.56;;;22.60;48.38
37064;BME280;23211;53.912;9.138;2022-10-16T14:14:58;101555.53;;;22.63;48.64
37064;BME280;23211;53.912;9.138;2022-10-16T14:17:48;101555.53;;;22.63;48.15
37064;BME280;23211;53.912;9.138;2022-10-16T14:20:35;101565.47;;;22.59;48.22
37064;BME280;23211;53.912;9.138;2022-10-16T14:23:34;101567.34;;;22.49;48.09
37064;BME280;23211;53.912;9.138;2022-10-16T14:26:23;101578.91;;;22.46;48.22
37064;BME280;23211;53.912;9.138;2022-10-16T14:29:14;101583.38;;;22.42;48.50
37064;BME280;23211;53.912;9.138;2022-10-16T14:32:05;101577.56;;;22.35;48.28
37064;BME280;23211;53.912;9.138;2022-10-16T14:34:54;101581.22;;;22.31;48.57
37064;BME280;23211;53.912;9.138;2022-10-16T14:37:39;101590.03;;;22.28;48.76
37064;BME280;23211;53.912;9.138;2022-10-16T14:40:33;101588.25;;;22.23;48.76
37064;BME280;23211;53.912;9.138;2022-10-16T14:43:24;101587.94;;;22.25;48.90
37064;BME280;23211;53.912;9.138;2022-10-16T14:46:15;101596.31;;;22.06;50.04
37064;BME280;23211;53.912;9.138;2022-10-16T14:49:22;101594.75;;;22.13;49.28
37064;BME280;23211;53.912;9.138;2022-10-16T14:52:11;101605.56;;;22.18;49.18
37064;BME280;23211;53.912;9.138;2022-10-16T14:54:57;101610.22;;;22.18;49.04
37064;BME280;23211;53.912;9.138;2022-10-16T14:57:44;101610.84;;;22.15;48.96
37064;BME280;23211;53.912;9.138;2022-10-16T15:00:31;101615.19;;;22.16;49.20
37064;BME280;23211;53.912;9.138;2022-10-16T15:03:16;101609.72;;;22.16;48.96
37064;BME280;23211;53.912;9.138;2022-10-16T15:06:03;101617.72;;;22.12;48.76
37064;BME280;23211;53.912;9.138;2022-10-16T15:08:49;101620.56;;;22.07;48.72
37064;BME280;23211;53.912;9.138;2022-10-16T15:11:34;101617.66;;;22.04;48.90
37064;BME280;23211;53.912;9.138;2022-10-16T15:14:20;101633.81;;;22.00;48.83
37064;BME280;23211;53.912;9.138;2022-10-16T15:17:09;101625.13;;;21.98;48.84
37064;BME280;23211;53.912;9.138;2022-10-16T15:19:55;101637.47;;;21.96;48.86
37064;BME280;23211;53.912;9.138;2022-10-16T15:22:41;101643.53;;;21.93;49.14
37064;BME280;23211;53.912;9.138;2022-10-16T15:25:37;101647.19;;;21.88;48.87
37064;BME280;23211;53.912;9.138;2022-10-16T15:28:24;101653.56;;;21.83;48.97
37064;BME280;23211;53.912;9.138;2022-10-16T15:31:11;101651.75;;;21.79;48.97
37064;BME280;23211;53.912;9.138;2022-10-16T15:33:56;101651.38;;;21.72;49.00
37064;BME280;23211;53.912;9.138;2022-10-16T15:36:49;101668.16;;;21.65;48.84
37064;BME280;23211;53.912;9.138;2022-10-16T15:39:35;101660.69;;;21.57;49.04
37064;BME280;23211;53.912;9.138;2022-10-16T15:42:21;101662.72;;;21.51;49.13
37064;BME280;23211;53.912;9.138;2022-10-16T15:45:08;101671.31;;;21.45;48.96
37064;BME280;23211;53.912;9.138;2022-10-16T15:47:54;101672.03;;;21.37;48.67
37064;BME280;23211;53.912;9.138;2022-10-16T15:50:40;101668.38;;;21.28;49.07
37064;BME280;23211;53.912;9.138;2022-10-16T15:53:27;101671.78;;;21.19;49.15
37064;BME280;23211;53.912;9.138;2022-10-16T15:56:14;101670.56;;;21.12;49.00
37064;BME280;23211;53.912;9.138;2022-10-16T15:59:01;101679.75;;;21.02;49.17
37064;BME280;23211;53.912;9.138;2022-10-16T16:01:48;101683.66;;;20.96;49.20
37064;BME280;23211;53.912;9.138;2022-10-16T16:04:33;101691.44;;;20.89;49.16
37064;BME280;23211;53.912;9.138;2022-10-16T16:07:20;101695.66;;;20.81;49.27
37064;BME280;23211;53.912;9.138;2022-10-16T16:10:07;101685.72;;;20.72;49.26
37064;BME280;23211;53.912;9.138;2022-10-16T16:12:53;101696.97;;;20.65;49.47
37064;BME280;23211;53.912;9.138;2022-10-16T16:15:39;101706.34;;;20.59;49.40
37064;BME280;23211;53.912;9.138;2022-10-16T16:18:26;101707.84;;;20.51;49.59
37064;BME280;23211;53.912;9.138;2022-10-16T16:21:12;101710.94;;;20.45;49.58